Terminal Aerodrome Forecast
Issued by NWS

Home | Current Version | Previous Version | Text Only | Print | Product List | Glossary On
Versions: 1 2 3 4 5 6 7 8 9 10 11 12 13 14 15 16 17 18 19 20 21 22 23 24 25 26 27 28 29 30 31 32 33
870
FTUS43 KDVN 211728
TAFCID
TAF
KCID 211728Z 2118/2218 22009KT 1SM BR OVC003
     FM211830 22010KT 3SM BR OVC005
     FM212100 22007KT 5SM BR OVC009
     FM220300 VRB03KT 2SM BR OVC005
     FM220700 34004KT 1/2SM FG OVC003
     FM221600 34010KT 2SM BR OVC006=

USA.gov is the U.S. government's official web portal to all federal, state and local government web resources and services.